sensor_id;sensor_type;location;lat;lon;timestamp;P1;durP1;ratioP1;P2;durP2;ratioP2
68284;SDS011;55114;52.052;5.238;2022-11-11T00:01:12;17.42;;;6.75;;
68284;SDS011;55114;52.052;5.238;2022-11-11T00:03:40;16.77;;;6.47;;
68284;SDS011;55114;52.052;5.238;2022-11-11T00:06:09;17.42;;;6.93;;
68284;SDS011;55114;52.052;5.238;2022-11-11T00:08:37;15.80;;;6.93;;
68284;SDS011;55114;52.052;5.238;2022-11-11T00:11:05;18.90;;;7.25;;
68284;SDS011;55114;52.052;5.238;2022-11-11T00:13:33;17.40;;;7.35;;
68284;SDS011;55114;52.052;5.238;2022-11-11T00:16:03;17.63;;;7.53;;
68284;SDS011;55114;52.052;5.238;2022-11-11T00:18:31;16.23;;;8.10;;
68284;SDS011;55114;52.052;5.238;2022-11-11T00:21:17;22.75;;;8.98;;
68284;SDS011;55114;52.052;5.238;2022-11-11T00:24:03;18.67;;;8.13;;
68284;SDS011;55114;52.052;5.238;2022-11-11T00:26:49;17.35;;;8.25;;
68284;SDS011;55114;52.052;5.238;2022-11-11T00:29:17;16.87;;;8.40;;
68284;SDS011;55114;52.052;5.238;2022-11-11T00:31:46;17.52;;;8.48;;
68284;SDS011;55114;52.052;5.238;2022-11-11T00:34:31;22.75;;;9.73;;
68284;SDS011;55114;52.052;5.238;2022-11-11T00:36:59;23.88;;;9.35;;
68284;SDS011;55114;52.052;5.238;2022-11-11T00:39:26;18.48;;;8.80;;
68284;SDS011;55114;52.052;5.238;2022-11-11T00:41:53;21.63;;;9.30;;
68284;SDS011;55114;52.052;5.238;2022-11-11T00:44:20;22.60;;;9.35;;
68284;SDS011;55114;52.052;5.238;2022-11-11T00:46:48;22.55;;;9.65;;
68284;SDS011;55114;52.052;5.238;2022-11-11T00:49:41;20.48;;;8.50;;
68284;SDS011;55114;52.052;5.238;2022-11-11T00:52:47;22.38;;;9.32;;
68284;SDS011;55114;52.052;5.238;2022-11-11T00:55:15;18.40;;;9.30;;
68284;SDS011;55114;52.052;5.238;2022-11-11T00:57:42;19.02;;;9.23;;
68284;SDS011;55114;52.052;5.238;2022-11-11T01:00:10;20.75;;;9.43;;
68284;SDS011;55114;52.052;5.238;2022-11-11T01:02:38;22.80;;;9.93;;
68284;SDS011;55114;52.052;5.238;2022-11-11T01:05:05;22.05;;;9.70;;
68284;SDS011;55114;52.052;5.238;2022-11-11T01:07:33;24.23;;;10.27;;
68284;SDS011;55114;52.052;5.238;2022-11-11T01:10:00;21.65;;;10.57;;
68284;SDS011;55114;52.052;5.238;2022-11-11T01:12:28;21.67;;;10.73;;
68284;SDS011;55114;52.052;5.238;2022-11-11T01:14:55;26.05;;;10.85;;
68284;SDS011;55114;52.052;5.238;2022-11-11T01:17:22;22.73;;;10.68;;
68284;SDS011;55114;52.052;5.238;2022-11-11T01:19:49;26.30;;;11.17;;
68284;SDS011;55114;52.052;5.238;2022-11-11T01:22:17;24.48;;;10.95;;
68284;SDS011;55114;52.052;5.238;2022-11-11T01:24:44;24.15;;;11.73;;
68284;SDS011;55114;52.052;5.238;2022-11-11T01:27:12;27.38;;;11.48;;
68284;SDS011;55114;52.052;5.238;2022-11-11T01:29:39;26.48;;;11.38;;
68284;SDS011;55114;52.052;5.238;2022-11-11T01:32:06;25.13;;;11.83;;
68284;SDS011;55114;52.052;5.238;2022-11-11T01:34:34;24.00;;;11.05;;
68284;SDS011;55114;52.052;5.238;2022-11-11T01:37:01;27.52;;;11.50;;
68284;SDS011;55114;52.052;5.238;2022-11-11T01:39:29;27.20;;;12.43;;
68284;SDS011;55114;52.052;5.238;2022-11-11T01:41:56;26.05;;;11.18;;
68284;SDS011;55114;52.052;5.238;2022-11-11T01:44:46;24.53;;;11.43;;
68284;SDS011;55114;52.052;5.238;2022-11-11T01:47:13;27.33;;;11.60;;
68284;SDS011;55114;52.052;5.238;2022-11-11T01:54:43;26.10;;;12.43;;
68284;SDS011;55114;52.052;5.238;2022-11-11T01:57:13;27.90;;;12.47;;
68284;SDS011;55114;52.052;5.238;2022-11-11T01:59:42;28.27;;;12.65;;
68284;SDS011;55114;52.052;5.238;2022-11-11T02:02:16;26.77;;;12.50;;
68284;SDS011;55114;52.052;5.238;2022-11-11T02:04:45;30.63;;;12.35;;
68284;SDS011;55114;52.052;5.238;2022-11-11T02:07:34;26.90;;;12.52;;
68284;SDS011;55114;52.052;5.238;2022-11-11T02:10:04;28.07;;;12.30;;
68284;SDS011;55114;52.052;5.238;2022-11-11T02:12:31;29.35;;;12.43;;
68284;SDS011;55114;52.052;5.238;2022-11-11T02:15:18;30.92;;;12.88;;
68284;SDS011;55114;52.052;5.238;2022-11-11T02:17:46;28.90;;;12.55;;
68284;SDS011;55114;52.052;5.238;2022-11-11T02:20:14;28.88;;;12.80;;
68284;SDS011;55114;52.052;5.238;2022-11-11T02:22:50;25.73;;;12.00;;
68284;SDS011;55114;52.052;5.238;2022-11-11T02:25:19;25.42;;;11.15;;
68284;SDS011;55114;52.052;5.238;2022-11-11T02:27:49;29.52;;;12.55;;
68284;SDS011;55114;52.052;5.238;2022-11-11T02:30:17;26.20;;;11.35;;
68284;SDS011;55114;52.052;5.238;2022-11-11T02:32:46;30.35;;;11.98;;
68284;SDS011;55114;52.052;5.238;2022-11-11T02:35:18;27.93;;;11.67;;
68284;SDS011;55114;52.052;5.238;2022-11-11T02:37:47;26.10;;;12.00;;
68284;SDS011;55114;52.052;5.238;2022-11-11T02:40:16;25.33;;;11.88;;
68284;SDS011;55114;52.052;5.238;2022-11-11T02:42:44;30.85;;;11.75;;
68284;SDS011;55114;52.052;5.238;2022-11-11T02:45:11;27.77;;;12.27;;
68284;SDS011;55114;52.052;5.238;2022-11-11T02:47:38;29.23;;;11.43;;
68284;SDS011;55114;52.052;5.238;2022-11-11T02:50:06;29.77;;;12.48;;
68284;SDS011;55114;52.052;5.238;2022-11-11T02:52:33;26.83;;;12.02;;
68284;SDS011;55114;52.052;5.238;2022-11-11T02:55:01;27.73;;;11.77;;
68284;SDS011;55114;52.052;5.238;2022-11-11T02:57:28;30.10;;;12.10;;
68284;SDS011;55114;52.052;5.238;2022-11-11T02:59:56;25.43;;;11.00;;
68284;SDS011;55114;52.052;5.238;2022-11-11T03:02:25;28.45;;;11.98;;
68284;SDS011;55114;52.052;5.238;2022-11-11T03:04:55;28.15;;;12.02;;
68284;SDS011;55114;52.052;5.238;2022-11-11T03:07:23;33.05;;;12.63;;
68284;SDS011;55114;52.052;5.238;2022-11-11T03:09:51;27.83;;;12.68;;
68284;SDS011;55114;52.052;5.238;2022-11-11T03:12:19;27.67;;;12.10;;
68284;SDS011;55114;52.052;5.238;2022-11-11T03:14:46;29.27;;;13.07;;
68284;SDS011;55114;52.052;5.238;2022-11-11T03:17:13;27.52;;;12.43;;
68284;SDS011;55114;52.052;5.238;2022-11-11T03:19:59;30.55;;;12.60;;
68284;SDS011;55114;52.052;5.238;2022-11-11T03:22:57;32.08;;;12.43;;
68284;SDS011;55114;52.052;5.238;2022-11-11T03:25:25;27.50;;;12.47;;
68284;SDS011;55114;52.052;5.238;2022-11-11T03:30:35;29.27;;;11.73;;
68284;SDS011;55114;52.052;5.238;2022-11-11T03:33:02;30.45;;;12.18;;
68284;SDS011;55114;52.052;5.238;2022-11-11T03:35:29;29.98;;;11.95;;
68284;SDS011;55114;52.052;5.238;2022-11-11T03:37:57;27.20;;;11.70;;
68284;SDS011;55114;52.052;5.238;2022-11-11T03:40:44;32.92;;;12.50;;
68284;SDS011;55114;52.052;5.238;2022-11-11T03:43:12;28.38;;;11.95;;
68284;SDS011;55114;52.052;5.238;2022-11-11T03:45:40;26.67;;;10.95;;
68284;SDS011;55114;52.052;5.238;2022-11-11T03:48:07;27.70;;;11.18;;
68284;SDS011;55114;52.052;5.238;2022-11-11T03:50:34;27.33;;;11.37;;
68284;SDS011;55114;52.052;5.238;2022-11-11T03:53:02;25.77;;;10.27;;
68284;SDS011;55114;52.052;5.238;2022-11-11T03:55:30;26.38;;;10.98;;
68284;SDS011;55114;52.052;5.238;2022-11-11T03:57:57;27.20;;;10.60;;
68284;SDS011;55114;52.052;5.238;2022-11-11T04:00:25;27.77;;;11.23;;
68284;SDS011;55114;52.052;5.238;2022-11-11T04:05:57;25.08;;;10.52;;
68284;SDS011;55114;52.052;5.238;2022-11-11T04:08:43;28.48;;;10.40;;
68284;SDS011;55114;52.052;5.238;2022-11-11T04:11:34;23.35;;;10.57;;
68284;SDS011;55114;52.052;5.238;2022-11-11T04:14:05;23.92;;;10.15;;
68284;SDS011;55114;52.052;5.238;2022-11-11T04:16:52;26.93;;;10.60;;
68284;SDS011;55114;52.052;5.238;2022-11-11T04:19:22;24.17;;;9.57;;
68284;SDS011;55114;52.052;5.238;2022-11-11T04:22:09;24.45;;;10.05;;
68284;SDS011;55114;52.052;5.238;2022-11-11T04:24:36;22.33;;;10.35;;
68284;SDS011;55114;52.052;5.238;2022-11-11T04:27:22;24.73;;;9.25;;
68284;SDS011;55114;52.052;5.238;2022-11-11T04:29:49;28.37;;;10.43;;
68284;SDS011;55114;52.052;5.238;2022-11-11T04:32:18;22.73;;;9.20;;
68284;SDS011;55114;52.052;5.238;2022-11-11T04:35:07;27.08;;;10.25;;
68284;SDS011;55114;52.052;5.238;2022-11-11T04:37:35;22.50;;;9.68;;
68284;SDS011;55114;52.052;5.238;2022-11-11T04:40:03;21.90;;;9.40;;
68284;SDS011;55114;52.052;5.238;2022-11-11T04:42:52;23.17;;;9.10;;
68284;SDS011;55114;52.052;5.238;2022-11-11T04:45:20;20.92;;;9.00;;
68284;SDS011;55114;52.052;5.238;2022-11-11T04:47:54;22.60;;;8.73;;
68284;SDS011;55114;52.052;5.238;2022-11-11T04:50:32;24.55;;;9.40;;
68284;SDS011;55114;52.052;5.238;2022-11-11T04:53:00;22.55;;;9.07;;
68284;SDS011;55114;52.052;5.238;2022-11-11T04:55:27;19.43;;;8.97;;
68284;SDS011;55114;52.052;5.238;2022-11-11T04:58:14;20.35;;;9.38;;
68284;SDS011;55114;52.052;5.238;2022-11-11T05:00:43;22.48;;;9.25;;
68284;SDS011;55114;52.052;5.238;2022-11-11T05:03:11;22.17;;;9.55;;
68284;SDS011;55114;52.052;5.238;2022-11-11T05:08:27;20.13;;;8.23;;
68284;SDS011;55114;52.052;5.238;2022-11-11T05:11:13;20.95;;;9.40;;
68284;SDS011;55114;52.052;5.238;2022-11-11T05:13:40;21.67;;;8.82;;
68284;SDS011;55114;52.052;5.238;2022-11-11T05:16:27;21.02;;;8.60;;
68284;SDS011;55114;52.052;5.238;2022-11-11T05:19:14;22.55;;;8.50;;
68284;SDS011;55114;52.052;5.238;2022-11-11T05:22:06;20.77;;;8.33;;
68284;SDS011;55114;52.052;5.238;2022-11-11T05:24:35;21.08;;;8.52;;
68284;SDS011;55114;52.052;5.238;2022-11-11T05:27:20;19.58;;;8.43;;
68284;SDS011;55114;52.052;5.238;2022-11-11T05:29:48;19.20;;;8.32;;
68284;SDS011;55114;52.052;5.238;2022-11-11T05:32:18;21.27;;;8.48;;
68284;SDS011;55114;52.052;5.238;2022-11-11T05:34:46;20.97;;;8.83;;
68284;SDS011;55114;52.052;5.238;2022-11-11T05:37:13;22.65;;;8.73;;
68284;SDS011;55114;52.052;5.238;2022-11-11T05:39:41;20.17;;;8.77;;
68284;SDS011;55114;52.052;5.238;2022-11-11T05:42:08;22.10;;;8.65;;
68284;SDS011;55114;52.052;5.238;2022-11-11T05:44:35;24.63;;;8.73;;
68284;SDS011;55114;52.052;5.238;2022-11-11T05:47:02;18.47;;;8.30;;
68284;SDS011;55114;52.052;5.238;2022-11-11T05:49:30;19.27;;;8.88;;
68284;SDS011;55114;52.052;5.238;2022-11-11T05:51:57;24.10;;;8.90;;
68284;SDS011;55114;52.052;5.238;2022-11-11T05:54:25;19.88;;;8.30;;
68284;SDS011;55114;52.052;5.238;2022-11-11T05:56:52;20.50;;;8.13;;
68284;SDS011;55114;52.052;5.238;2022-11-11T05:59:19;21.20;;;8.63;;
68284;SDS011;55114;52.052;5.238;2022-11-11T06:01:46;19.63;;;8.45;;
68284;SDS011;55114;52.052;5.238;2022-11-11T06:04:13;19.17;;;8.10;;
68284;SDS011;55114;52.052;5.238;2022-11-11T06:06:43;22.27;;;7.63;;
68284;SDS011;55114;52.052;5.238;2022-11-11T06:09:11;19.52;;;8.02;;
68284;SDS011;55114;52.052;5.238;2022-11-11T06:11:38;21.90;;;8.30;;
68284;SDS011;55114;52.052;5.238;2022-11-11T06:14:05;19.02;;;8.27;;
68284;SDS011;55114;52.052;5.238;2022-11-11T06:16:32;21.58;;;8.13;;
68284;SDS011;55114;52.052;5.238;2022-11-11T06:18:59;19.77;;;8.07;;
68284;SDS011;55114;52.052;5.238;2022-11-11T06:21:29;20.67;;;8.05;;
68284;SDS011;55114;52.052;5.238;2022-11-11T06:23:57;18.90;;;7.97;;
68284;SDS011;55114;52.052;5.238;2022-11-11T06:26:24;20.73;;;7.93;;
68284;SDS011;55114;52.052;5.238;2022-11-11T06:28:52;19.23;;;7.63;;
68284;SDS011;55114;52.052;5.238;2022-11-11T06:31:26;18.63;;;8.50;;
68284;SDS011;55114;52.052;5.238;2022-11-11T06:33:53;17.70;;;7.95;;
68284;SDS011;55114;52.052;5.238;2022-11-11T06:36:21;20.33;;;8.00;;
68284;SDS011;55114;52.052;5.238;2022-11-11T06:38:49;20.27;;;7.78;;
68284;SDS011;55114;52.052;5.238;2022-11-11T06:41:16;23.00;;;8.20;;
68284;SDS011;55114;52.052;5.238;2022-11-11T06:43:44;20.00;;;7.97;;
68284;SDS011;55114;52.052;5.238;2022-11-11T06:46:16;24.17;;;8.80;;
68284;SDS011;55114;52.052;5.238;2022-11-11T06:48:43;19.87;;;8.73;;
68284;SDS011;55114;52.052;5.238;2022-11-11T06:51:11;19.77;;;8.18;;
68284;SDS011;55114;52.052;5.238;2022-11-11T06:53:40;19.27;;;7.90;;
68284;SDS011;55114;52.052;5.238;2022-11-11T06:56:07;19.10;;;8.02;;
68284;SDS011;55114;52.052;5.238;2022-11-11T06:58:34;19.98;;;8.27;;
68284;SDS011;55114;52.052;5.238;2022-11-11T07:01:05;20.27;;;8.50;;
68284;SDS011;55114;52.052;5.238;2022-11-11T07:03:33;21.95;;;7.97;;
68284;SDS011;55114;52.052;5.238;2022-11-11T07:06:01;19.38;;;8.20;;
68284;SDS011;55114;52.052;5.238;2022-11-11T07:08:28;21.75;;;8.35;;
68284;SDS011;55114;52.052;5.238;2022-11-11T07:10:56;18.50;;;7.90;;
68284;SDS011;55114;52.052;5.238;2022-11-11T07:13:38;22.00;;;7.93;;
68284;SDS011;55114;52.052;5.238;2022-11-11T07:16:05;20.38;;;8.15;;
68284;SDS011;55114;52.052;5.238;2022-11-11T07:18:36;23.17;;;8.55;;
68284;SDS011;55114;52.052;5.238;2022-11-11T07:21:03;21.08;;;8.35;;
68284;SDS011;55114;52.052;5.238;2022-11-11T07:23:33;18.73;;;7.85;;
68284;SDS011;55114;52.052;5.238;2022-11-11T07:26:00;23.13;;;8.73;;
68284;SDS011;55114;52.052;5.238;2022-11-11T07:28:27;21.23;;;8.98;;
68284;SDS011;55114;52.052;5.238;2022-11-11T07:30:55;21.08;;;9.15;;
68284;SDS011;55114;52.052;5.238;2022-11-11T07:33:22;22.60;;;8.60;;
68284;SDS011;55114;52.052;5.238;2022-11-11T07:35:50;24.13;;;8.50;;
68284;SDS011;55114;52.052;5.238;2022-11-11T07:38:17;21.53;;;9.20;;
68284;SDS011;55114;52.052;5.238;2022-11-11T07:40:47;22.48;;;9.55;;
68284;SDS011;55114;52.052;5.238;2022-11-11T07:43:14;20.52;;;9.18;;
68284;SDS011;55114;52.052;5.238;2022-11-11T07:45:41;22.92;;;9.50;;
68284;SDS011;55114;52.052;5.238;2022-11-11T07:48:08;26.05;;;9.68;;
68284;SDS011;55114;52.052;5.238;2022-11-11T07:50:35;24.97;;;9.50;;
68284;SDS011;55114;52.052;5.238;2022-11-11T07:53:03;21.83;;;9.50;;
68284;SDS011;55114;52.052;5.238;2022-11-11T07:55:30;27.27;;;11.15;;
68284;SDS011;55114;52.052;5.238;2022-11-11T07:57:57;22.77;;;9.43;;
68284;SDS011;55114;52.052;5.238;2022-11-11T08:00:24;25.92;;;9.90;;
68284;SDS011;55114;52.052;5.238;2022-11-11T08:02:52;22.07;;;9.77;;
68284;SDS011;55114;52.052;5.238;2022-11-11T08:05:24;23.55;;;9.57;;
68284;SDS011;55114;52.052;5.238;2022-11-11T08:07:53;24.30;;;10.00;;
68284;SDS011;55114;52.052;5.238;2022-11-11T08:10:21;25.45;;;9.98;;
68284;SDS011;55114;52.052;5.238;2022-11-11T08:12:54;24.38;;;10.57;;
68284;SDS011;55114;52.052;5.238;2022-11-11T08:15:40;25.10;;;9.87;;
68284;SDS011;55114;52.052;5.238;2022-11-11T08:18:08;24.05;;;9.68;;
68284;SDS011;55114;52.052;5.238;2022-11-11T08:20:42;28.15;;;10.10;;
68284;SDS011;55114;52.052;5.238;2022-11-11T08:23:15;25.60;;;9.75;;
68284;SDS011;55114;52.052;5.238;2022-11-11T08:26:07;24.42;;;10.07;;
68284;SDS011;55114;52.052;5.238;2022-11-11T08:28:35;26.37;;;10.47;;
68284;SDS011;55114;52.052;5.238;2022-11-11T08:31:02;25.45;;;10.23;;
68284;SDS011;55114;52.052;5.238;2022-11-11T08:33:33;25.65;;;10.65;;
68284;SDS011;55114;52.052;5.238;2022-11-11T08:36:10;24.20;;;9.48;;
68284;SDS011;55114;52.052;5.238;2022-11-11T08:38:45;25.30;;;10.35;;
68284;SDS011;55114;52.052;5.238;2022-11-11T08:41:12;24.43;;;10.00;;
68284;SDS011;55114;52.052;5.238;2022-11-11T08:43:39;22.65;;;10.30;;
68284;SDS011;55114;52.052;5.238;2022-11-11T08:46:06;23.73;;;9.63;;
68284;SDS011;55114;52.052;5.238;2022-11-11T08:48:33;27.65;;;11.20;;
68284;SDS011;55114;52.052;5.238;2022-11-11T08:51:01;24.30;;;10.48;;
68284;SDS011;55114;52.052;5.238;2022-11-11T08:53:28;21.70;;;9.37;;
68284;SDS011;55114;52.052;5.238;2022-11-11T08:55:55;23.67;;;10.07;;
68284;SDS011;55114;52.052;5.238;2022-11-11T08:58:22;26.15;;;10.73;;
68284;SDS011;55114;52.052;5.238;2022-11-11T09:00:49;27.00;;;10.88;;
68284;SDS011;55114;52.052;5.238;2022-11-11T09:03:16;23.42;;;10.57;;
68284;SDS011;55114;52.052;5.238;2022-11-11T09:05:47;25.27;;;10.03;;
68284;SDS011;55114;52.052;5.238;2022-11-11T09:08:14;30.60;;;10.52;;
68284;SDS011;55114;52.052;5.238;2022-11-11T09:10:41;23.38;;;9.82;;
68284;SDS011;55114;52.052;5.238;2022-11-11T09:13:08;24.65;;;9.85;;
68284;SDS011;55114;52.052;5.238;2022-11-11T09:15:35;23.92;;;10.02;;
68284;SDS011;55114;52.052;5.238;2022-11-11T09:18:02;24.87;;;9.97;;
68284;SDS011;55114;52.052;5.238;2022-11-11T09:20:29;24.27;;;10.18;;
68284;SDS011;55114;52.052;5.238;2022-11-11T09:22:57;22.50;;;9.80;;
68284;SDS011;55114;52.052;5.238;2022-11-11T09:25:24;21.33;;;8.98;;
68284;SDS011;55114;52.052;5.238;2022-11-11T09:27:58;24.63;;;10.20;;
68284;SDS011;55114;52.052;5.238;2022-11-11T09:30:26;23.40;;;10.00;;
68284;SDS011;55114;52.052;5.238;2022-11-11T09:32:53;23.38;;;9.75;;
68284;SDS011;55114;52.052;5.238;2022-11-11T09:35:21;23.50;;;10.18;;
68284;SDS011;55114;52.052;5.238;2022-11-11T09:37:54;20.67;;;8.68;;
68284;SDS011;55114;52.052;5.238;2022-11-11T09:40:23;22.65;;;9.60;;
68284;SDS011;55114;52.052;5.238;2022-11-11T09:43:13;23.47;;;9.67;;
68284;SDS011;55114;52.052;5.238;2022-11-11T09:45:47;23.27;;;9.60;;
68284;SDS011;55114;52.052;5.238;2022-11-11T09:51:25;22.88;;;10.00;;
68284;SDS011;55114;52.052;5.238;2022-11-11T09:53:56;22.92;;;9.90;;
68284;SDS011;55114;52.052;5.238;2022-11-11T09:56:25;25.10;;;9.63;;
68284;SDS011;55114;52.052;5.238;2022-11-11T10:01:46;19.30;;;9.50;;
68284;SDS011;55114;52.052;5.238;2022-11-11T10:04:33;19.10;;;8.48;;
68284;SDS011;55114;52.052;5.238;2022-11-11T10:10:11;19.87;;;8.73;;
68284;SDS011;55114;52.052;5.238;2022-11-11T10:12:43;21.45;;;8.52;;
68284;SDS011;55114;52.052;5.238;2022-11-11T10:15:13;21.23;;;8.23;;
68284;SDS011;55114;52.052;5.238;2022-11-11T10:20:29;20.05;;;8.52;;
68284;SDS011;55114;52.052;5.238;2022-11-11T10:23:01;17.87;;;8.20;;
68284;SDS011;55114;52.052;5.238;2022-11-11T10:25:29;19.88;;;8.40;;
68284;SDS011;55114;52.052;5.238;2022-11-11T10:27:58;18.92;;;8.57;;
68284;SDS011;55114;52.052;5.238;2022-11-11T10:30:26;17.38;;;8.60;;
68284;SDS011;55114;52.052;5.238;2022-11-11T10:33:01;21.70;;;9.02;;
68284;SDS011;55114;52.052;5.238;2022-11-11T10:35:30;19.10;;;8.60;;
68284;SDS011;55114;52.052;5.238;2022-11-11T10:38:02;18.95;;;9.50;;
68284;SDS011;55114;52.052;5.238;2022-11-11T10:40:39;18.20;;;9.63;;
68284;SDS011;55114;52.052;5.238;2022-11-11T10:43:14;20.92;;;9.25;;
68284;SDS011;55114;52.052;5.238;2022-11-11T10:45:50;23.08;;;9.95;;
68284;SDS011;55114;52.052;5.238;2022-11-11T10:48:28;21.80;;;9.27;;
68284;SDS011;55114;52.052;5.238;2022-11-11T10:50:58;20.77;;;9.50;;
68284;SDS011;55114;52.052;5.238;2022-11-11T10:53:32;21.80;;;10.05;;
68284;SDS011;55114;52.052;5.238;2022-11-11T10:56:16;21.88;;;9.63;;
68284;SDS011;55114;52.052;5.238;2022-11-11T11:01:15;19.37;;;8.60;;
68284;SDS011;55114;52.052;5.238;2022-11-11T11:03:51;19.55;;;8.60;;
68284;SDS011;55114;52.052;5.238;2022-11-11T11:06:23;16.95;;;8.10;;
68284;SDS011;55114;52.052;5.238;2022-11-11T11:09:02;19.80;;;8.90;;
68284;SDS011;55114;52.052;5.238;2022-11-11T11:11:35;23.13;;;9.32;;
68284;SDS011;55114;52.052;5.238;2022-11-11T11:14:20;21.07;;;9.00;;
68284;SDS011;55114;52.052;5.238;2022-11-11T11:16:50;20.23;;;8.57;;
68284;SDS011;55114;52.052;5.238;2022-11-11T11:19:22;20.45;;;9.15;;
68284;SDS011;55114;52.052;5.238;2022-11-11T11:21:59;22.08;;;9.68;;
68284;SDS011;55114;52.052;5.238;2022-11-11T11:24:28;21.50;;;9.10;;
68284;SDS011;55114;52.052;5.238;2022-11-11T11:27:00;18.27;;;9.07;;
68284;SDS011;55114;52.052;5.238;2022-11-11T11:31:55;21.40;;;8.57;;
68284;SDS011;55114;52.052;5.238;2022-11-11T11:34:41;19.85;;;9.40;;
68284;SDS011;55114;52.052;5.238;2022-11-11T11:37:09;17.05;;;9.02;;
68284;SDS011;55114;52.052;5.238;2022-11-11T11:39:37;17.77;;;9.23;;
68284;SDS011;55114;52.052;5.238;2022-11-11T11:42:05;20.80;;;9.27;;
68284;SDS011;55114;52.052;5.238;2022-11-11T11:44:33;20.40;;;8.70;;
68284;SDS011;55114;52.052;5.238;2022-11-11T11:47:14;19.60;;;8.63;;
68284;SDS011;55114;52.052;5.238;2022-11-11T11:52:46;16.87;;;7.63;;
68284;SDS011;55114;52.052;5.238;2022-11-11T11:55:17;17.00;;;7.88;;
68284;SDS011;55114;52.052;5.238;2022-11-11T12:02:55;17.17;;;7.53;;
68284;SDS011;55114;52.052;5.238;2022-11-11T12:13:41;14.57;;;7.40;;
68284;SDS011;55114;52.052;5.238;2022-11-11T12:21:15;18.38;;;7.60;;
68284;SDS011;55114;52.052;5.238;2022-11-11T12:26:21;14.07;;;6.90;;
68284;SDS011;55114;52.052;5.238;2022-11-11T12:33:51;16.98;;;7.32;;
68284;SDS011;55114;52.052;5.238;2022-11-11T12:38:56;15.27;;;6.72;;
68284;SDS011;55114;52.052;5.238;2022-11-11T12:52:14;16.60;;;7.80;;
68284;SDS011;55114;52.052;5.238;2022-11-11T13:00:18;13.20;;;6.22;;
68284;SDS011;55114;52.052;5.238;2022-11-11T13:02:51;15.02;;;6.70;;
68284;SDS011;55114;52.052;5.238;2022-11-11T13:11:07;14.70;;;6.50;;
68284;SDS011;55114;52.052;5.238;2022-11-11T13:14:12;14.40;;;6.30;;
68284;SDS011;55114;52.052;5.238;2022-11-11T13:16:31;14.75;;;6.57;;
68284;SDS011;55114;52.052;5.238;2022-11-11T13:19:15;15.80;;;6.10;;
68284;SDS011;55114;52.052;5.238;2022-11-11T13:21:53;13.40;;;6.38;;
68284;SDS011;55114;52.052;5.238;2022-11-11T13:24:22;13.17;;;5.83;;
68284;SDS011;55114;52.052;5.238;2022-11-11T13:26:56;15.25;;;6.20;;
68284;SDS011;55114;52.052;5.238;2022-11-11T13:32:08;13.10;;;6.10;;
68284;SDS011;55114;52.052;5.238;2022-11-11T13:34:37;13.50;;;5.47;;
68284;SDS011;55114;52.052;5.238;2022-11-11T13:37:06;15.97;;;6.23;;
68284;SDS011;55114;52.052;5.238;2022-11-11T13:39:37;11.73;;;5.70;;
68284;SDS011;55114;52.052;5.238;2022-11-11T13:42:05;12.75;;;5.57;;
68284;SDS011;55114;52.052;5.238;2022-11-11T13:44:34;15.63;;;5.63;;
68284;SDS011;55114;52.052;5.238;2022-11-11T13:47:06;14.45;;;5.63;;
68284;SDS011;55114;52.052;5.238;2022-11-11T13:49:37;11.97;;;5.70;;
68284;SDS011;55114;52.052;5.238;2022-11-11T13:57:32;11.60;;;5.55;;
68284;SDS011;55114;52.052;5.238;2022-11-11T14:00:03;13.05;;;5.60;;
68284;SDS011;55114;52.052;5.238;2022-11-11T14:02:34;14.27;;;5.57;;
68284;SDS011;55114;52.052;5.238;2022-11-11T14:08:05;11.38;;;5.43;;
68284;SDS011;55114;52.052;5.238;2022-11-11T14:15:48;14.50;;;5.20;;
68284;SDS011;55114;52.052;5.238;2022-11-11T14:20:45;11.07;;;5.00;;
68284;SDS011;55114;52.052;5.238;2022-11-11T14:25:44;11.25;;;5.35;;
68284;SDS011;55114;52.052;5.238;2022-11-11T14:28:22;14.40;;;5.17;;
68284;SDS011;55114;52.052;5.238;2022-11-11T14:30:50;11.23;;;4.88;;
68284;SDS011;55114;52.052;5.238;2022-11-11T14:36:13;11.60;;;4.95;;
68284;SDS011;55114;52.052;5.238;2022-11-11T14:44:27;12.80;;;4.95;;
68284;SDS011;55114;52.052;5.238;2022-11-11T15:00:11;10.75;;;4.38;;
68284;SDS011;55114;52.052;5.238;2022-11-11T15:02:53;10.73;;;4.57;;
68284;SDS011;55114;52.052;5.238;2022-11-11T15:05:26;12.52;;;5.32;;
68284;SDS011;55114;52.052;5.238;2022-11-11T15:10:26;16.67;;;4.95;;
68284;SDS011;55114;52.052;5.238;2022-11-11T15:15:27;11.23;;;4.80;;
68284;SDS011;55114;52.052;5.238;2022-11-11T15:20:30;10.43;;;4.60;;
68284;SDS011;55114;52.052;5.238;2022-11-11T15:23:05;12.50;;;4.70;;
68284;SDS011;55114;52.052;5.238;2022-11-11T15:33:42;11.73;;;4.53;;
68284;SDS011;55114;52.052;5.238;2022-11-11T15:36:16;11.48;;;4.50;;
68284;SDS011;55114;52.052;5.238;2022-11-11T15:38:44;12.23;;;5.05;;
68284;SDS011;55114;52.052;5.238;2022-11-11T15:41:25;8.88;;;4.53;;
68284;SDS011;55114;52.052;5.238;2022-11-11T15:44:00;8.93;;;4.35;;
68284;SDS011;55114;52.052;5.238;2022-11-11T15:46:30;10.73;;;4.43;;
68284;SDS011;55114;52.052;5.238;2022-11-11T15:49:01;9.90;;;4.60;;
68284;SDS011;55114;52.052;5.238;2022-11-11T15:51:32;13.27;;;5.45;;
68284;SDS011;55114;52.052;5.238;2022-11-11T15:56:56;11.68;;;5.38;;
68284;SDS011;55114;52.052;5.238;2022-11-11T15:59:28;14.67;;;4.93;;
68284;SDS011;55114;52.052;5.238;2022-11-11T16:02:05;11.52;;;4.97;;
68284;SDS011;55114;52.052;5.238;2022-11-11T16:04:34;12.95;;;5.80;;
68284;SDS011;55114;52.052;5.238;2022-11-11T16:07:22;10.18;;;5.32;;
68284;SDS011;55114;52.052;5.238;2022-11-11T16:09:50;10.32;;;5.18;;
68284;SDS011;55114;52.052;5.238;2022-11-11T16:12:21;12.80;;;5.40;;
68284;SDS011;55114;52.052;5.238;2022-11-11T16:14:49;13.35;;;5.63;;
68284;SDS011;55114;52.052;5.238;2022-11-11T16:17:18;9.20;;;4.72;;
68284;SDS011;55114;52.052;5.238;2022-11-11T16:19:46;12.52;;;5.28;;
68284;SDS011;55114;52.052;5.238;2022-11-11T16:22:19;12.07;;;5.55;;
68284;SDS011;55114;52.052;5.238;2022-11-11T16:24:47;11.83;;;5.37;;
68284;SDS011;55114;52.052;5.238;2022-11-11T16:27:20;13.93;;;5.38;;
68284;SDS011;55114;52.052;5.238;2022-11-11T16:29:48;12.35;;;5.63;;
68284;SDS011;55114;52.052;5.238;2022-11-11T16:32:30;11.27;;;5.25;;
68284;SDS011;55114;52.052;5.238;2022-11-11T16:34:57;13.80;;;5.53;;
68284;SDS011;55114;52.052;5.238;2022-11-11T16:37:25;11.03;;;5.23;;
68284;SDS011;55114;52.052;5.238;2022-11-11T16:39:52;14.35;;;5.45;;
68284;SDS011;55114;52.052;5.238;2022-11-11T16:42:20;15.98;;;5.90;;
68284;SDS011;55114;52.052;5.238;2022-11-11T16:52:38;12.27;;;5.10;;
68284;SDS011;55114;52.052;5.238;2022-11-11T16:55:07;12.88;;;5.28;;
68284;SDS011;55114;52.052;5.238;2022-11-11T16:57:38;12.15;;;4.97;;
68284;SDS011;55114;52.052;5.238;2022-11-11T17:00:11;13.30;;;5.20;;
68284;SDS011;55114;52.052;5.238;2022-11-11T17:02:39;11.00;;;4.63;;
68284;SDS011;55114;52.052;5.238;2022-11-11T17:05:06;12.50;;;4.75;;
68284;SDS011;55114;52.052;5.238;2022-11-11T17:07:40;12.25;;;5.18;;
68284;SDS011;55114;52.052;5.238;2022-11-11T17:10:14;15.70;;;5.22;;
68284;SDS011;55114;52.052;5.238;2022-11-11T17:12:42;11.80;;;5.55;;
68284;SDS011;55114;52.052;5.238;2022-11-11T17:15:10;12.77;;;6.20;;
68284;SDS011;55114;52.052;5.238;2022-11-11T17:17:39;13.57;;;5.88;;
68284;SDS011;55114;52.052;5.238;2022-11-11T17:20:11;12.63;;;5.95;;
68284;SDS011;55114;52.052;5.238;2022-11-11T17:22:48;12.70;;;6.20;;
68284;SDS011;55114;52.052;5.238;2022-11-11T17:25:16;12.68;;;5.55;;
68284;SDS011;55114;52.052;5.238;2022-11-11T17:27:43;12.77;;;6.00;;